Time;durP1;ratioP1;P1;durP2;ratioP2;P2;SDS_P1;SDS_P2;PMS_P1;PMS_P2;Temp;Humidity;BMP_temperature;BMP_pressure;BME280_temperature;BME280_humidity;BME280_pressure;Samples;Min_cycle;Max_cycle;Signal;HPM_P1;HPM_P2
2023/01/16 00:00:51;;;;;;;1.97;1.30;;;;;;;;;;5031241;28;20488;-78
2023/01/16 00:03:17;;;;;;;3.50;1.33;;;;;;;;;;5033155;28;20067;-78
2023/01/16 00:05:43;;;;;;;2.53;1.37;;;;;;;;;;5031655;28;20037;-78
2023/01/16 00:08:08;;;;;;;3.53;1.50;;;;;;;;;;5032712;28;20482;-79
2023/01/16 00:10:34;;;;;;;3.67;1.57;;;;;;;;;;5032946;28;20104;-78
2023/01/16 00:13:00;;;;;;;6.47;1.90;;;;;;;;;;5032318;28;20034;-78
2023/01/16 00:15:25;;;;;;;4.70;1.30;;;;;;;;;;5031133;28;20033;-78
2023/01/16 00:17:50;;;;;;;5.63;1.47;;;;;;;;;;5031099;28;20679;-78
2023/01/16 00:20:16;;;;;;;2.57;1.30;;;;;;;;;;5031160;28;20103;-78
2023/01/16 00:22:42;;;;;;;4.73;1.37;;;;;;;;;;5031026;28;20029;-78
2023/01/16 00:25:08;;;;;;;2.90;1.30;;;;;;;;;;5030897;28;20036;-78
2023/01/16 00:27:34;;;;;;;3.20;1.20;;;;;;;;;;5032799;28;20033;-78
2023/01/16 00:29:59;;;;;;;5.27;1.60;;;;;;;;;;5031035;28;20113;-78
2023/01/16 00:32:25;;;;;;;4.63;1.60;;;;;;;;;;5030079;28;20021;-78
2023/01/16 00:34:50;;;;;;;4.17;1.50;;;;;;;;;;5031320;28;20060;-78
2023/01/16 00:37:16;;;;;;;3.37;1.20;;;;;;;;;;5028501;28;20064;-78
2023/01/16 00:39:41;;;;;;;3.43;1.30;;;;;;;;;;5012004;28;20026;-78
2023/01/16 00:42:07;;;;;;;2.27;1.30;;;;;;;;;;5012019;28;20506;-78
2023/01/16 00:44:33;;;;;;;1.30;0.97;;;;;;;;;;5010459;28;20057;-78
2023/01/16 00:46:58;;;;;;;3.23;1.50;;;;;;;;;;5011959;28;20079;-78
2023/01/16 00:49:24;;;;;;;1.90;1.30;;;;;;;;;;5010315;28;20028;-77
2023/01/16 00:51:49;;;;;;;2.83;1.57;;;;;;;;;;5011827;28;20029;-77
2023/01/16 00:54:15;;;;;;;4.37;1.37;;;;;;;;;;5010402;28;20427;-78
2023/01/16 00:56:40;;;;;;;4.73;2.13;;;;;;;;;;5010540;28;20041;-78
2023/01/16 00:59:06;;;;;;;3.83;1.50;;;;;;;;;;5011974;28;20462;-78
2023/01/16 01:01:31;;;;;;;3.30;1.27;;;;;;;;;;5010595;28;20029;-77
2023/01/16 01:04:00;;;;;;;2.33;1.20;;;;;;;;;;5011786;28;20026;-78
2023/01/16 01:06:26;;;;;;;2.87;1.40;;;;;;;;;;5010479;28;20037;-78
2023/01/16 01:08:51;;;;;;;8.07;2.03;;;;;;;;;;5012160;28;20026;-78
2023/01/16 01:11:17;;;;;;;1.77;1.10;;;;;;;;;;5010962;28;20228;-78
2023/01/16 01:13:43;;;;;;;5.60;1.30;;;;;;;;;;5011846;28;20022;-79
2023/01/16 01:16:09;;;;;;;2.07;1.40;;;;;;;;;;5012077;28;20088;-79
2023/01/16 01:18:35;;;;;;;6.40;1.60;;;;;;;;;;5011162;28;20030;-78
2023/01/16 01:21:01;;;;;;;5.33;1.20;;;;;;;;;;5011983;28;20025;-78
2023/01/16 01:23:27;;;;;;;3.23;1.27;;;;;;;;;;5009958;28;20133;-78
2023/01/16 01:25:53;;;;;;;3.00;1.30;;;;;;;;;;5009968;28;20046;-78
2023/01/16 01:28:19;;;;;;;3.27;2.00;;;;;;;;;;5009690;28;20026;-78
2023/01/16 01:30:44;;;;;;;5.13;1.40;;;;;;;;;;5009868;28;20032;-78
2023/01/16 01:33:10;;;;;;;5.57;1.50;;;;;;;;;;5009524;28;20030;-78
2023/01/16 01:35:36;;;;;;;3.80;1.80;;;;;;;;;;5010838;28;20030;-78
2023/01/16 01:38:02;;;;;;;3.43;1.27;;;;;;;;;;5019334;28;20089;-78
2023/01/16 01:40:27;;;;;;;4.30;1.30;;;;;;;;;;5029010;28;20461;-78
2023/01/16 01:42:53;;;;;;;2.97;1.23;;;;;;;;;;5030971;28;20049;-78
2023/01/16 01:45:29;;;;;;;1.83;1.30;;;;;;;;;;5012284;28;20053;-78
2023/01/16 01:48:24;;;;;;;3.27;1.47;;;;;;;;;;5030775;28;20071;-79
2023/01/16 01:50:49;;;;;;;4.80;1.27;;;;;;;;;;5029275;28;20033;-78
2023/01/16 01:53:21;;;;;;;5.37;1.47;;;;;;;;;;5029216;28;20059;-78
2023/01/16 01:55:48;;;;;;;3.40;1.30;;;;;;;;;;5029144;28;20481;-77
2023/01/16 01:58:20;;;;;;;3.70;1.10;;;;;;;;;;5030358;28;20029;-77
2023/01/16 02:00:46;;;;;;;1.98;1.38;;;;;;;;;;5029420;28;20040;-77
2023/01/16 02:03:25;;;;;;;2.73;1.07;;;;;;;;;;5029346;28;20037;-78
2023/01/16 02:05:54;;;;;;;14.37;1.73;;;;;;;;;;5028893;28;20041;-78
2023/01/16 02:08:22;;;;;;;1.73;1.13;;;;;;;;;;5028692;28;20124;-79
2023/01/16 02:11:01;;;;;;;3.07;1.17;;;;;;;;;;5029044;28;20021;-78
2023/01/16 02:13:28;;;;;;;2.93;1.00;;;;;;;;;;5028380;28;20026;-78
2023/01/16 02:21:48;;;;;;;3.20;1.50;;;;;;;;;;5029968;28;20036;-78
2023/01/16 02:24:38;;;;;;;3.73;1.13;;;;;;;;;;5028277;28;20094;-77
2023/01/16 02:27:36;;;;;;;4.37;0.83;;;;;;;;;;5028642;28;20120;-78
2023/01/16 02:30:38;;;;;;;5.70;1.47;;;;;;;;;;5024436;28;20073;-78
2023/01/16 02:33:09;;;;;;;1.55;1.10;;;;;;;;;;5028998;28;20041;-79
2023/01/16 02:35:54;;;;;;;3.33;1.02;;;;;;;;;;5028836;28;20037;-79
2023/01/16 02:38:31;;;;;;;2.93;0.93;;;;;;;;;;5027638;28;20427;-79
2023/01/16 02:41:08;;;;;;;5.13;1.10;;;;;;;;;;5028519;28;20033;-78
2023/01/16 02:43:36;;;;;;;2.33;1.00;;;;;;;;;;5029490;28;20053;-78
2023/01/16 02:46:10;;;;;;;1.13;0.87;;;;;;;;;;5028411;28;20114;-78
2023/01/16 02:48:45;;;;;;;3.83;1.23;;;;;;;;;;5028351;28;20026;-79
2023/01/16 02:51:28;;;;;;;5.50;1.33;;;;;;;;;;5030287;28;20064;-77
2023/01/16 02:54:06;;;;;;;2.13;0.70;;;;;;;;;;5029550;28;20462;-79
2023/01/16 02:56:41;;;;;;;4.27;0.90;;;;;;;;;;5027295;28;20036;-78
2023/01/16 02:59:11;;;;;;;2.67;0.80;;;;;;;;;;5029401;28;20029;-78
2023/01/16 03:01:40;;;;;;;4.50;1.30;;;;;;;;;;5027930;28;20032;-78
2023/01/16 03:04:44;;;;;;;2.13;1.50;;;;;;;;;;5029151;28;20045;-79
2023/01/16 03:07:31;;;;;;;2.83;1.00;;;;;;;;;;5027843;28;20029;-77
2023/01/16 03:10:15;;;;;;;3.07;1.10;;;;;;;;;;5028444;28;20029;-78
2023/01/16 03:12:56;;;;;;;1.73;0.90;;;;;;;;;;5028846;28;20026;-78
2023/01/16 03:15:39;;;;;;;1.83;0.90;;;;;;;;;;5029910;28;20385;-79
2023/01/16 03:18:31;;;;;;;2.73;1.20;;;;;;;;;;5029894;28;20353;-78
2023/01/16 03:21:06;;;;;;;5.03;1.00;;;;;;;;;;5028718;28;20608;-78
2023/01/16 03:23:40;;;;;;;3.47;1.10;;;;;;;;;;5029513;28;20022;-78
2023/01/16 03:26:30;;;;;;;2.00;0.97;;;;;;;;;;5028097;28;20490;-77
2023/01/16 03:29:05;;;;;;;4.30;1.00;;;;;;;;;;5028227;28;20036;-78
2023/01/16 03:31:37;;;;;;;5.13;1.00;;;;;;;;;;5027795;28;20495;-78
2023/01/16 03:34:30;;;;;;;5.03;1.30;;;;;;;;;;5028083;28;20477;-78
2023/01/16 03:37:01;;;;;;;;;;;;;;;;;;5028038;28;20094;-78
2023/01/16 03:39:34;;;;;;;2.87;1.03;;;;;;;;;;5008267;28;20262;-78
2023/01/16 03:42:04;;;;;;;2.67;0.80;;;;;;;;;;5009953;28;20503;-78
2023/01/16 03:44:35;;;;;;;1.53;0.97;;;;;;;;;;5010252;28;20081;-78
2023/01/16 03:47:03;;;;;;;2.23;0.80;;;;;;;;;;5011013;28;20033;-77
2023/01/16 03:49:41;;;;;;;1.60;1.00;;;;;;;;;;5010393;28;20033;-77
2023/01/16 03:52:11;;;;;;;1.93;0.80;;;;;;;;;;5010048;28;20026;-74
2023/01/16 03:55:22;;;;;;;3.97;1.10;;;;;;;;;;5008707;28;20025;-77
2023/01/16 03:57:58;;;;;;;2.30;1.20;;;;;;;;;;5008908;28;20124;-76
2023/01/16 04:00:28;;;;;;;2.03;1.17;;;;;;;;;;5008542;28;20057;-76
2023/01/16 04:03:34;;;;;;;3.70;1.00;;;;;;;;;;5010423;28;20048;-76
2023/01/16 04:06:08;;;;;;;3.13;1.07;;;;;;;;;;4992366;28;20045;-77
2023/01/16 04:08:38;;;;;;;2.67;1.37;;;;;;;;;;5011469;28;20030;-77
2023/01/16 04:11:04;;;;;;;2.77;2.10;;;;;;;;;;5011404;28;20058;-78
2023/01/16 04:13:36;;;;;;;7.37;3.77;;;;;;;;;;5012759;28;20032;-77
2023/01/16 04:16:06;;;;;;;21.63;8.32;;;;;;;;;;5012765;28;20544;-76
2023/01/16 04:18:35;;;;;;;24.77;10.73;;;;;;;;;;5010900;28;20144;-77
2023/01/16 04:21:04;;;;;;;14.73;9.97;;;;;;;;;;5010818;28;20053;-77
2023/01/16 04:23:29;;;;;;;13.67;10.20;;;;;;;;;;5012484;28;20121;-77
2023/01/16 04:25:55;;;;;;;9.87;6.63;;;;;;;;;;5010962;28;20116;-77
2023/01/16 04:28:20;;;;;;;7.80;5.70;;;;;;;;;;5012796;28;20506;-77
2023/01/16 04:30:46;;;;;;;11.43;5.67;;;;;;;;;;5012130;28;20021;-77
2023/01/16 04:33:11;;;;;;;9.90;5.70;;;;;;;;;;5011074;28;20136;-76
2023/01/16 04:35:37;;;;;;;11.97;5.90;;;;;;;;;;5010629;28;20037;-77
2023/01/16 04:38:02;;;;;;;7.97;3.87;;;;;;;;;;5019006;28;20083;-78
2023/01/16 04:40:28;;;;;;;7.73;3.60;;;;;;;;;;5030538;28;20166;-77
2023/01/16 04:42:54;;;;;;;10.97;3.10;;;;;;;;;;5030600;28;20037;-76
2023/01/16 04:45:21;;;;;;;5.03;2.27;;;;;;;;;;5031392;28;20061;-77
2023/01/16 04:47:47;;;;;;;8.70;1.90;;;;;;;;;;5013784;28;20136;-77
2023/01/16 04:50:13;;;;;;;2.07;1.33;;;;;;;;;;5031732;28;20468;-77
2023/01/16 04:52:40;;;;;;;1.50;1.23;;;;;;;;;;5030230;28;20033;-77
2023/01/16 04:55:07;;;;;;;2.37;1.07;;;;;;;;;;5030335;28;20124;-77
2023/01/16 04:57:32;;;;;;;3.13;0.90;;;;;;;;;;5013728;28;20033;-76
2023/01/16 04:59:58;;;;;;;3.70;1.23;;;;;;;;;;5030680;28;20071;-77
2023/01/16 05:02:23;;;;;;;2.70;1.23;;;;;;;;;;5030406;28;20037;-78
2023/01/16 05:04:49;;;;;;;1.30;0.80;;;;;;;;;;5031826;28;20033;-77
2023/01/16 05:07:14;;;;;;;3.30;0.87;;;;;;;;;;5031538;28;20029;-77
2023/01/16 05:09:40;;;;;;;3.83;1.60;;;;;;;;;;5030713;28;20454;-77
2023/01/16 05:12:06;;;;;;;6.67;1.80;;;;;;;;;;5032267;28;20156;-77
2023/01/16 05:14:31;;;;;;;3.77;1.50;;;;;;;;;;5032098;28;20029;-76
2023/01/16 05:16:57;;;;;;;3.40;1.47;;;;;;;;;;5031985;28;20038;-77
2023/01/16 05:19:24;;;;;;;4.37;1.17;;;;;;;;;;5029633;28;20037;-77
2023/01/16 05:21:50;;;;;;;6.57;1.50;;;;;;;;;;5031185;28;20033;-77
2023/01/16 05:24:15;;;;;;;5.67;1.20;;;;;;;;;;5030559;28;20033;-78
2023/01/16 05:26:42;;;;;;;3.20;1.03;;;;;;;;;;5030692;28;20044;-76
2023/01/16 05:29:07;;;;;;;2.83;1.17;;;;;;;;;;5014576;28;20033;-76
2023/01/16 05:31:33;;;;;;;2.57;1.40;;;;;;;;;;5030018;28;20035;-77
2023/01/16 05:33:58;;;;;;;3.07;1.17;;;;;;;;;;5024705;28;20480;-78
2023/01/16 05:36:24;;;;;;;2.83;1.07;;;;;;;;;;5030481;28;20037;-78
2023/01/16 05:38:50;;;;;;;4.77;1.03;;;;;;;;;;5022962;28;20037;-75
2023/01/16 05:41:16;;;;;;;2.90;1.23;;;;;;;;;;5029642;28;20039;-76
2023/01/16 05:43:42;;;;;;;1.27;0.90;;;;;;;;;;5030760;28;20124;-75
2023/01/16 05:46:08;;;;;;;4.03;1.60;;;;;;;;;;5029187;28;20377;-74
2023/01/16 05:48:35;;;;;;;2.73;1.20;;;;;;;;;;5029416;28;20044;-75
2023/01/16 05:51:02;;;;;;;3.30;1.37;;;;;;;;;;5030842;28;20042;-76
2023/01/16 05:53:29;;;;;;;2.60;1.10;;;;;;;;;;5027913;28;20033;-75
2023/01/16 05:55:55;;;;;;;3.73;1.00;;;;;;;;;;5028401;28;20022;-79
2023/01/16 05:58:21;;;;;;;4.83;1.30;;;;;;;;;;5025633;28;20029;-77
2023/01/16 06:00:46;;;;;;;9.83;3.60;;;;;;;;;;5023322;28;20060;-77
2023/01/16 06:03:12;;;;;;;3.03;1.33;;;;;;;;;;5027972;28;20064;-79
2023/01/16 06:05:37;;;;;;;4.87;1.27;;;;;;;;;;5028356;28;20374;-74
2023/01/16 06:08:04;;;;;;;3.37;1.60;;;;;;;;;;5022713;28;20222;-76
2023/01/16 06:10:30;;;;;;;2.20;0.90;;;;;;;;;;5024630;28;20034;-75
2023/01/16 06:12:56;;;;;;;6.03;1.67;;;;;;;;;;5016439;28;20044;-78
2023/01/16 06:15:21;;;;;;;3.17;1.20;;;;;;;;;;5030117;28;20044;-74
2023/01/16 06:17:48;;;;;;;5.23;1.10;;;;;;;;;;5029202;28;20026;-77
2023/01/16 06:20:13;;;;;;;5.23;1.30;;;;;;;;;;5031125;28;20041;-77
2023/01/16 06:22:39;;;;;;;3.20;1.00;;;;;;;;;;5028556;28;20049;-78
2023/01/16 06:25:05;;;;;;;4.00;1.50;;;;;;;;;;5025051;28;20029;-77
2023/01/16 06:27:32;;;;;;;3.90;1.17;;;;;;;;;;5025788;28;20046;-78
2023/01/16 06:29:57;;;;;;;3.00;1.27;;;;;;;;;;5027476;28;20041;-75
2023/01/16 06:32:23;;;;;;;2.70;1.47;;;;;;;;;;5025393;28;20037;-76
2023/01/16 06:34:48;;;;;;;2.47;1.53;;;;;;;;;;5027130;28;20117;-78
2023/01/16 06:37:14;;;;;;;3.50;1.53;;;;;;;;;;5024824;28;20025;-77
2023/01/16 06:39:40;;;;;;;4.90;1.97;;;;;;;;;;5027097;28;20029;-78
2023/01/16 06:42:05;;;;;;;2.53;0.97;;;;;;;;;;5026405;28;20049;-77
2023/01/16 06:44:33;;;;;;;4.43;1.37;;;;;;;;;;5025550;28;20049;-77
2023/01/16 06:47:01;;;;;;;3.50;1.23;;;;;;;;;;5021590;28;20401;-78
2023/01/16 06:49:27;;;;;;;2.93;1.37;;;;;;;;;;5023939;28;20037;-78
2023/01/16 06:51:52;;;;;;;3.27;1.83;;;;;;;;;;5024889;28;20044;-78
2023/01/16 06:54:18;;;;;;;6.47;2.83;;;;;;;;;;5023822;28;20037;-74
2023/01/16 06:56:44;;;;;;;4.43;1.63;;;;;;;;;;5022776;28;20052;-77
2023/01/16 06:59:09;;;;;;;9.50;2.20;;;;;;;;;;5026814;28;20041;-77
2023/01/16 07:01:37;;;;;;;17.57;6.47;;;;;;;;;;5023461;28;20033;-76
2023/01/16 07:04:06;;;;;;;7.60;2.33;;;;;;;;;;5023592;28;20108;-75
2023/01/16 07:06:32;;;;;;;3.57;1.40;;;;;;;;;;5018623;28;20116;-75
2023/01/16 07:08:58;;;;;;;4.03;1.63;;;;;;;;;;5024035;28;20033;-75
2023/01/16 07:11:23;;;;;;;7.00;1.57;;;;;;;;;;5021086;28;20034;-74
2023/01/16 07:22:34;;;;;;;6.17;1.73;;;;;;;;;;5023191;28;20029;-80
2023/01/16 07:24:59;;;;;;;6.30;1.70;;;;;;;;;;5024813;28;20073;-78
2023/01/16 07:27:25;;;;;;;3.87;1.50;;;;;;;;;;5022245;28;20033;-77
2023/01/16 07:29:52;;;;;;;2.67;1.00;;;;;;;;;;5008923;28;20386;-80
2023/01/16 07:32:18;;;;;;;5.23;1.33;;;;;;;;;;5024936;28;20045;-76
2023/01/16 07:34:44;;;;;;;3.83;1.20;;;;;;;;;;5023066;28;20053;-75
2023/01/16 07:37:10;;;;;;;7.00;1.37;;;;;;;;;;5025050;28;20021;-80
2023/01/16 07:39:36;;;;;;;9.80;2.30;;;;;;;;;;5023517;28;20033;-76
2023/01/16 07:42:06;;;;;;;10.73;1.90;;;;;;;;;;5022799;28;20449;-74
2023/01/16 07:44:32;;;;;;;5.17;2.50;;;;;;;;;;5026273;28;20149;-74
2023/01/16 07:46:57;;;;;;;6.57;1.43;;;;;;;;;;5025902;28;20048;-74
2023/01/16 07:49:23;;;;;;;1.30;1.20;;;;;;;;;;5024065;28;20030;-75
2023/01/16 07:51:50;;;;;;;2.13;1.07;;;;;;;;;;5023581;28;20061;-79
2023/01/16 07:54:15;;;;;;;7.90;1.73;;;;;;;;;;5026785;28;20029;-77
2023/01/16 07:56:41;;;;;;;5.03;1.70;;;;;;;;;;5019423;28;20041;-77
2023/01/16 07:59:06;;;;;;;4.40;1.67;;;;;;;;;;5025546;28;20073;-72
2023/01/16 08:01:33;;;;;;;2.57;1.30;;;;;;;;;;5025522;28;20029;-74
2023/01/16 08:03:59;;;;;;;8.47;1.90;;;;;;;;;;5027491;28;20025;-76
2023/01/16 08:06:24;;;;;;;6.73;1.57;;;;;;;;;;5025163;28;20123;-76
2023/01/16 08:08:50;;;;;;;3.80;1.07;;;;;;;;;;5024079;28;20036;-78
2023/01/16 08:14:04;;;;;;;3.13;1.50;;;;;;;;;;5021767;28;20413;-77
2023/01/16 08:16:29;;;;;;;4.27;1.67;;;;;;;;;;4995958;28;20472;-76
2023/01/16 08:18:55;;;;;;;7.90;2.07;;;;;;;;;;5022771;28;20033;-76
2023/01/16 08:21:21;;;;;;;5.83;3.10;;;;;;;;;;5021787;28;20667;-77
2023/01/16 08:23:46;;;;;;;4.87;1.90;;;;;;;;;;5023513;28;20040;-79
2023/01/16 08:26:15;;;;;;;3.07;1.80;;;;;;;;;;5022396;28;20404;-77
2023/01/16 08:28:42;;;;;;;8.77;2.47;;;;;;;;;;5019819;28;20037;-77
2023/01/16 08:31:11;;;;;;;3.53;1.70;;;;;;;;;;5024492;28;20080;-76
2023/01/16 08:33:41;;;;;;;3.93;1.00;;;;;;;;;;5023847;28;20659;-79
2023/01/16 08:36:10;;;;;;;4.97;1.40;;;;;;;;;;5026090;28;20041;-78
2023/01/16 08:38:36;;;;;;;6.53;1.80;;;;;;;;;;5018355;28;20038;-77
2023/01/16 08:41:02;;;;;;;2.63;1.67;;;;;;;;;;5023975;28;20102;-78
2023/01/16 08:51:58;;;;;;;7.60;2.23;;;;;;;;;;5024556;28;20087;-77
2023/01/16 08:54:25;;;;;;;4.43;1.80;;;;;;;;;;5022520;28;20083;-76
2023/01/16 08:56:51;;;;;;;5.83;1.73;;;;;;;;;;5024050;28;20069;-76
2023/01/16 08:59:17;;;;;;;6.07;2.57;;;;;;;;;;5030244;28;20033;-76
2023/01/16 09:01:46;;;;;;;5.47;1.53;;;;;;;;;;5023585;28;20553;-77
2023/01/16 09:04:11;;;;;;;16.07;2.87;;;;;;;;;;5020855;28;20048;-77
2023/01/16 09:06:38;;;;;;;7.50;2.30;;;;;;;;;;5029050;28;20538;-77
2023/01/16 09:09:05;;;;;;;4.83;2.20;;;;;;;;;;5019331;28;20064;-76
2023/01/16 09:14:16;;;;;;;6.87;1.87;;;;;;;;;;5015648;28;20032;-77
2023/01/16 09:16:44;;;;;;;6.87;2.43;;;;;;;;;;5022064;28;20041;-77
2023/01/16 09:19:10;;;;;;;4.07;1.87;;;;;;;;;;5012430;28;22028;-77
2023/01/16 09:21:35;;;;;;;7.30;2.47;;;;;;;;;;5020788;28;20049;-78
2023/01/16 09:24:02;;;;;;;4.90;1.70;;;;;;;;;;5023256;28;20037;-75
2023/01/16 09:26:28;;;;;;;5.27;2.37;;;;;;;;;;5019194;28;20040;-76
2023/01/16 09:28:54;;;;;;;5.47;3.00;;;;;;;;;;5021718;28;20033;-76
2023/01/16 09:31:19;;;;;;;9.37;2.57;;;;;;;;;;5021027;28;20022;-77
2023/01/16 09:33:47;;;;;;;4.47;2.07;;;;;;;;;;5021048;28;20102;-76
2023/01/16 09:36:13;;;;;;;7.87;2.67;;;;;;;;;;5020691;28;20073;-76
2023/01/16 09:38:38;;;;;;;5.90;2.60;;;;;;;;;;5023143;28;20033;-77
2023/01/16 09:41:04;;;;;;;14.03;2.43;;;;;;;;;;5019029;28;20103;-76
2023/01/16 09:43:40;;;;;;;20.53;11.43;;;;;;;;;;5027117;28;20031;-78
2023/01/16 09:46:16;;;;;;;4.73;2.83;;;;;;;;;;5027381;28;20033;-76
2023/01/16 09:48:56;;;;;;;11.30;2.47;;;;;;;;;;5025350;28;20078;-76
2023/01/16 09:51:30;;;;;;;7.30;2.40;;;;;;;;;;5023286;28;20029;-77
2023/01/16 09:59:44;;;;;;;6.53;2.50;;;;;;;;;;5020873;28;20083;-80
2023/01/16 10:02:20;;;;;;;13.37;2.20;;;;;;;;;;5021159;28;20122;-76
2023/01/16 10:04:47;;;;;;;5.77;2.23;;;;;;;;;;5024980;28;20557;-76
2023/01/16 10:07:41;;;;;;;8.13;1.97;;;;;;;;;;5034930;28;20033;-75
2023/01/16 10:10:16;;;;;;;4.83;2.43;;;;;;;;;;5023106;28;20044;-78
2023/01/16 10:12:56;;;;;;;10.73;2.60;;;;;;;;;;5021995;28;20275;-78
2023/01/16 10:15:56;;;;;;;5.90;2.27;;;;;;;;;;5021456;28;20489;-77
2023/01/16 10:18:44;;;;;;;5.00;1.80;;;;;;;;;;5008301;28;20042;-77
2023/01/16 10:21:31;;;;;;;11.30;2.17;;;;;;;;;;5019142;28;20069;-75
2023/01/16 10:24:21;;;;;;;5.63;1.73;;;;;;;;;;5019513;28;20027;-79
2023/01/16 10:26:46;;;;;;;6.13;1.80;;;;;;;;;;5022209;28;20038;-77
2023/01/16 10:29:23;;;;;;;5.30;1.70;;;;;;;;;;5020822;28;20031;-75
2023/01/16 10:32:01;;;;;;;3.73;1.73;;;;;;;;;;5021507;28;20029;-78
2023/01/16 10:34:36;;;;;;;2.63;1.77;;;;;;;;;;5009467;28;20091;-76
2023/01/16 10:37:04;;;;;;;2.70;1.30;;;;;;;;;;5016072;28;20056;-74
2023/01/16 10:39:36;;;;;;;6.40;1.60;;;;;;;;;;5020681;28;20117;-76
2023/01/16 10:50:37;;;;;;;5.93;1.77;;;;;;;;;;5023885;28;20036;-77
2023/01/16 10:53:06;;;;;;;6.17;1.67;;;;;;;;;;5017672;28;20120;-79
2023/01/16 10:55:35;;;;;;;5.07;1.77;;;;;;;;;;5019834;28;20880;-79
2023/01/16 10:58:12;;;;;;;5.53;1.70;;;;;;;;;;5016405;28;20040;-79
2023/01/16 11:00:41;;;;;;;4.03;1.53;;;;;;;;;;5022449;28;20555;-78
2023/01/16 11:03:23;;;;;;;7.93;1.70;;;;;;;;;;5017848;28;20026;-78
2023/01/16 11:05:49;;;;;;;5.40;1.37;;;;;;;;;;5020008;28;20549;-78
2023/01/16 11:08:17;;;;;;;5.10;2.00;;;;;;;;;;5023042;28;20029;-77
2023/01/16 11:10:50;;;;;;;9.07;3.13;;;;;;;;;;4999813;28;20092;-77
2023/01/16 11:18:58;;;;;;;8.67;1.40;;;;;;;;;;4998497;28;20140;-77
2023/01/16 11:21:26;;;;;;;3.87;1.43;;;;;;;;;;5019229;28;20033;-74
2023/01/16 11:24:02;;;;;;;7.77;1.50;;;;;;;;;;5004559;28;20072;-77
2023/01/16 11:26:29;;;;;;;6.73;1.20;;;;;;;;;;5008647;28;20037;-79
2023/01/16 11:28:56;;;;;;;3.13;0.93;;;;;;;;;;5021745;28;20065;-78
2023/01/16 11:31:25;;;;;;;3.23;1.53;;;;;;;;;;5019830;28;20058;-78
2023/01/16 11:34:00;;;;;;;4.40;1.37;;;;;;;;;;5026195;28;20029;-77
2023/01/16 11:36:29;;;;;;;5.73;1.53;;;;;;;;;;5024058;28;20029;-77
2023/01/16 11:38:56;;;;;;;3.70;1.00;;;;;;;;;;5023904;28;20022;-77
2023/01/16 11:41:45;;;;;;;4.23;1.53;;;;;;;;;;5022911;28;20052;-77
2023/01/16 11:47:14;;;;;;;3.27;0.77;;;;;;;;;;5021715;28;20507;-77
2023/01/16 11:49:52;;;;;;;1.23;0.77;;;;;;;;;;5025500;28;20096;-77
2023/01/16 11:52:29;;;;;;;1.83;1.03;;;;;;;;;;5026573;28;20049;-77
2023/01/16 11:55:04;;;;;;;1.70;1.00;;;;;;;;;;5022142;28;20033;-76
2023/01/16 11:57:53;;;;;;;1.67;0.87;;;;;;;;;;5022875;28;20030;-79
2023/01/16 12:00:29;;;;;;;4.30;1.20;;;;;;;;;;5024450;28;20112;-77
2023/01/16 12:03:32;;;;;;;8.10;1.20;;;;;;;;;;5022349;28;20432;-78
2023/01/16 12:05:57;;;;;;;5.83;1.50;;;;;;;;;;5025354;28;20030;-77
2023/01/16 12:08:41;;;;;;;0.67;0.53;;;;;;;;;;5022447;28;20036;-77
2023/01/16 12:11:23;;;;;;;3.37;0.83;;;;;;;;;;5020334;28;20025;-76
2023/01/16 12:14:18;;;;;;;3.60;0.70;;;;;;;;;;5020729;28;20143;-74
2023/01/16 12:16:55;;;;;;;1.97;0.57;;;;;;;;;;5024677;28;20040;-78
2023/01/16 12:19:51;;;;;;;2.27;0.83;;;;;;;;;;5022486;28;20036;-79
2023/01/16 12:22:27;;;;;;;1.57;0.70;;;;;;;;;;5017720;28;20034;-78
2023/01/16 12:25:27;;;;;;;3.13;0.93;;;;;;;;;;5021450;28;20981;-79
2023/01/16 12:28:11;;;;;;;6.57;1.43;;;;;;;;;;5022068;28;20030;-79
2023/01/16 12:31:16;;;;;;;3.20;0.90;;;;;;;;;;5028836;28;20810;-79
2023/01/16 12:34:17;;;;;;;8.73;1.60;;;;;;;;;;5018160;28;20132;-78
2023/01/16 12:36:52;;;;;;;5.77;2.00;;;;;;;;;;5027542;28;20033;-79
2023/01/16 12:39:41;;;;;;;4.07;0.73;;;;;;;;;;5030623;28;20355;-79
2023/01/16 12:45:44;;;;;;;2.90;1.13;;;;;;;;;;5025467;28;20592;-80
2023/01/16 12:48:46;;;;;;;4.38;1.17;;;;;;;;;;5022053;28;20062;-79
2023/01/16 12:51:53;;;;;;;7.47;0.80;;;;;;;;;;5024491;28;20033;-78
2023/01/16 12:54:44;;;;;;;2.63;1.20;;;;;;;;;;5025803;28;20549;-82
2023/01/16 12:57:31;;;;;;;3.42;0.75;;;;;;;;;;5024156;28;20026;-80
2023/01/16 13:00:06;;;;;;;1.75;1.13;;;;;;;;;;5004792;28;20494;-78
2023/01/16 13:03:03;;;;;;;2.38;0.93;;;;;;;;;;5022293;28;20025;-79
2023/01/16 13:05:33;;;;;;;1.40;0.80;;;;;;;;;;5019715;28;20025;-79
2023/01/16 13:08:08;;;;;;;2.15;0.80;;;;;;;;;;5024119;28;20603;-80
2023/01/16 13:13:36;;;;;;;2.72;1.52;;;;;;;;;;5026085;28;20043;-79
2023/01/16 13:16:27;;;;;;;1.65;1.02;;;;;;;;;;5023523;28;20036;-78
2023/01/16 13:19:15;;;;;;;2.55;0.60;;;;;;;;;;5022788;28;20160;-80
2023/01/16 13:21:59;;;;;;;1.73;0.98;;;;;;;;;;5020203;28;21454;-79
2023/01/16 13:24:35;;;;;;;1.25;0.93;;;;;;;;;;5022143;28;20083;-79
2023/01/16 13:27:04;;;;;;;7.47;1.17;;;;;;;;;;5023483;28;20033;-79
2023/01/16 13:29:39;;;;;;;6.35;1.10;;;;;;;;;;5020771;28;20056;-79
2023/01/16 13:32:31;;;;;;;3.17;1.05;;;;;;;;;;5020018;28;20111;-79
2023/01/16 13:35:04;;;;;;;3.65;0.73;;;;;;;;;;5024832;28;20025;-78
2023/01/16 13:37:45;;;;;;;6.25;1.73;;;;;;;;;;5018042;28;20014;-79
2023/01/16 13:40:34;;;;;;;2.30;0.80;;;;;;;;;;5027805;28;20032;-78
2023/01/16 13:45:53;;;;;;;2.53;1.60;;;;;;;;;;5023067;28;20064;-76
2023/01/16 13:48:37;;;;;;;5.38;1.20;;;;;;;;;;5020723;28;20512;-77
2023/01/16 13:51:13;;;;;;;1.67;1.10;;;;;;;;;;5023641;28;20042;-79
2023/01/16 13:53:40;;;;;;;3.55;1.45;;;;;;;;;;5023212;28;20037;-78
2023/01/16 13:56:13;;;;;;;2.70;1.23;;;;;;;;;;5025407;28;20029;-78
2023/01/16 13:58:54;;;;;;;3.03;1.25;;;;;;;;;;5024414;28;20565;-78
2023/01/16 14:01:38;;;;;;;4.22;1.35;;;;;;;;;;5014179;28;20232;-80
2023/01/16 14:04:17;;;;;;;4.47;1.05;;;;;;;;;;5019664;28;20033;-79
2023/01/16 14:06:48;;;;;;;2.00;0.75;;;;;;;;;;5021138;28;20037;-80
2023/01/16 14:09:17;;;;;;;1.98;1.05;;;;;;;;;;5026864;28;20113;-80
2023/01/16 14:12:04;;;;;;;3.67;1.30;;;;;;;;;;5023529;28;20440;-78
2023/01/16 14:17:50;;;;;;;3.53;1.20;;;;;;;;;;5023501;28;20048;-80
2023/01/16 14:20:49;;;;;;;1.63;0.90;;;;;;;;;;5023702;28;20046;-79
2023/01/16 14:26:49;;;;;;;3.13;1.27;;;;;;;;;;5028254;28;20455;-79
2023/01/16 14:29:32;;;;;;;3.30;1.00;;;;;;;;;;5020188;28;20120;-78
2023/01/16 14:32:12;;;;;;;2.13;0.93;;;;;;;;;;5022384;28;20041;-78
2023/01/16 14:34:44;;;;;;;1.03;0.67;;;;;;;;;;5024351;28;20112;-78
2023/01/16 14:37:32;;;;;;;2.07;1.00;;;;;;;;;;5024401;28;20507;-77
2023/01/16 14:40:11;;;;;;;1.27;1.10;;;;;;;;;;5021706;28;20033;-80
2023/01/16 14:56:59;;;;;;;2.63;1.53;;;;;;;;;;5026158;28;20102;-77
2023/01/16 14:59:27;;;;;;;7.17;1.77;;;;;;;;;;5021273;28;20022;-78
2023/01/16 15:02:21;;;;;;;5.73;1.50;;;;;;;;;;5017410;28;20383;-76
2023/01/16 15:05:06;;;;;;;3.40;1.27;;;;;;;;;;5009555;28;20045;-77
2023/01/16 15:07:51;;;;;;;5.00;1.30;;;;;;;;;;5026552;28;20037;-78
2023/01/16 15:10:33;;;;;;;5.83;1.90;;;;;;;;;;5020726;28;20670;-77
2023/01/16 15:13:25;;;;;;;3.33;1.52;;;;;;;;;;5025341;28;20055;-74
2023/01/16 15:15:59;;;;;;;2.40;1.13;;;;;;;;;;5019757;28;20032;-75
2023/01/16 15:23:47;;;;;;;1.70;1.40;;;;;;;;;;5020561;28;20037;-76
2023/01/16 15:26:30;;;;;;;3.33;1.30;;;;;;;;;;5021180;28;20037;-73
2023/01/16 15:29:04;;;;;;;1.87;0.87;;;;;;;;;;5022788;28;20124;-78
2023/01/16 15:31:40;;;;;;;4.87;1.23;;;;;;;;;;5019818;28;20049;-77
2023/01/16 15:34:20;;;;;;;1.77;1.17;;;;;;;;;;5036280;28;20032;-77
2023/01/16 15:36:49;;;;;;;4.43;1.33;;;;;;;;;;5025773;28;20036;-76
2023/01/16 15:39:26;;;;;;;6.57;2.27;;;;;;;;;;5022596;28;20044;-79
2023/01/16 15:48:00;;;;;;;2.00;1.10;;;;;;;;;;5024902;28;20083;-77
2023/01/16 15:50:52;;;;;;;2.17;1.17;;;;;;;;;;5023177;28;20041;-79
2023/01/16 15:53:18;;;;;;;2.28;1.67;;;;;;;;;;5020352;28;20450;-78
2023/01/16 15:55:54;;;;;;;2.73;1.43;;;;;;;;;;5025008;28;20026;-77
2023/01/16 15:58:24;;;;;;;1.93;1.40;;;;;;;;;;5018531;28;20116;-77
2023/01/16 16:00:57;;;;;;;2.77;1.27;;;;;;;;;;5015691;28;20025;-78
2023/01/16 16:03:30;;;;;;;4.37;1.47;;;;;;;;;;5017730;28;20041;-76
2023/01/16 16:05:58;;;;;;;;;;;;;;;;;;5022995;28;20476;-77
2023/01/16 16:08:26;;;;;;;5.30;1.70;;;;;;;;;;5027021;28;19920;-76
2023/01/16 16:13:39;;;;;;;2.00;1.37;;;;;;;;;;5030569;28;20120;-78
2023/01/16 16:19:09;;;;;;;2.88;1.35;;;;;;;;;;5031433;28;20804;-78
2023/01/16 16:22:47;;;;;;;5.10;2.27;;;;;;;;;;5028739;28;20029;-78
2023/01/16 16:24:32;;;;;;;2.93;1.30;;;;;;;;;;5029985;28;20051;-76
2023/01/16 16:27:07;;;;;;;1.93;1.10;;;;;;;;;;5028586;28;20056;-76
2023/01/16 16:29:34;;;;;;;2.60;1.13;;;;;;;;;;5028993;28;20029;-77
2023/01/16 16:32:05;;;;;;;3.73;1.77;;;;;;;;;;5028368;28;20037;-78
2023/01/16 16:34:32;;;;;;;4.07;1.30;;;;;;;;;;5030600;28;20446;-78
2023/01/16 16:37:01;;;;;;;2.07;1.20;;;;;;;;;;5028802;28;20120;-77
2023/01/16 16:39:29;;;;;;;3.30;1.50;;;;;;;;;;5028905;28;20033;-79
2023/01/16 16:45:08;;;;;;;4.60;1.47;;;;;;;;;;5030456;28;20176;-77
2023/01/16 16:47:35;;;;;;;3.90;1.70;;;;;;;;;;5028735;28;20417;-78
2023/01/16 16:50:22;;;;;;;4.70;1.10;;;;;;;;;;5028890;28;20056;-77
2023/01/16 16:52:48;;;;;;;3.63;1.30;;;;;;;;;;5028944;28;20123;-76
2023/01/16 16:55:28;;;;;;;1.83;1.40;;;;;;;;;;5029330;28;20596;-77